createdAt,value
2023-03-22T00:00:19.811Z,13.17
2023-03-22T00:02:48.138Z,12.97
2023-03-22T00:05:16.557Z,14.03
2023-03-22T00:07:46.322Z,14.83
2023-03-22T00:10:15.753Z,11.40
2023-03-22T00:12:44.041Z,14.30
2023-03-22T00:15:13.119Z,15.83
2023-03-22T00:17:42.098Z,14.27
2023-03-22T00:20:11.558Z,12.37
2023-03-22T00:22:42.479Z,16.00
2023-03-22T00:25:12.206Z,13.60
2023-03-22T00:27:41.625Z,14.67
2023-03-22T00:30:12.026Z,13.47
2023-03-22T00:32:42.413Z,14.90
2023-03-22T00:35:11.651Z,13.00
2023-03-22T00:37:41.123Z,13.30
2023-03-22T00:40:17.825Z,15.30
2023-03-22T00:42:47.750Z,18.23
2023-03-22T00:45:16.243Z,14.30
2023-03-22T00:47:45.197Z,14.50
2023-03-22T00:50:18.000Z,15.70
2023-03-22T00:52:47.786Z,18.13
2023-03-22T00:55:17.749Z,17.70
2023-03-22T00:57:49.868Z,13.17
2023-03-22T01:00:21.264Z,12.67
2023-03-22T01:02:49.635Z,12.03
2023-03-22T01:05:22.128Z,12.93
2023-03-22T01:07:55.121Z,12.73
2023-03-22T01:10:25.311Z,16.10
2023-03-22T01:12:56.886Z,12.63
2023-03-22T01:15:28.784Z,14.20
2023-03-22T01:17:57.493Z,12.60
2023-03-22T01:20:29.628Z,13.37
2023-03-22T01:23:01.155Z,14.27
2023-03-22T01:25:36.067Z,14.50
2023-03-22T01:28:09.555Z,14.33
2023-03-22T01:30:43.013Z,13.20
2023-03-22T01:33:14.971Z,13.47
2023-03-22T01:35:43.288Z,15.97
2023-03-22T01:38:22.344Z,17.67
2023-03-22T01:40:52.184Z,15.03
2023-03-22T01:43:25.840Z,15.27
2023-03-22T01:45:55.165Z,11.37
2023-03-22T01:48:30.954Z,14.10
2023-03-22T01:51:10.476Z,16.00
2023-03-22T01:53:48.009Z,15.27
2023-03-22T01:56:23.063Z,17.33
2023-03-22T01:58:52.408Z,14.50
2023-03-22T02:01:23.506Z,13.37
2023-03-22T02:03:59.164Z,16.50
2023-03-22T02:06:30.046Z,15.20
2023-03-22T02:09:02.235Z,15.33
2023-03-22T02:11:34.936Z,15.40
2023-03-22T02:14:27.455Z,16.43
2023-03-22T02:17:09.320Z,14.27
2023-03-22T02:20:18.033Z,12.20
2023-03-22T02:23:27.176Z,15.73
2023-03-22T02:26:31.899Z,11.90
2023-03-22T02:29:12.744Z,14.90
2023-03-22T02:32:29.093Z,15.20
2023-03-22T02:35:32.547Z,12.43
2023-03-22T02:38:23.892Z,13.10
2023-03-22T02:41:09.283Z,16.43
2023-03-22T02:43:46.450Z,13.33
2023-03-22T02:46:23.978Z,13.17
2023-03-22T02:49:01.085Z,13.20
2023-03-22T02:51:36.272Z,12.27
2023-03-22T02:54:10.199Z,14.10
2023-03-22T02:56:47.339Z,12.03
2023-03-22T02:59:20.096Z,12.40
2023-03-22T03:01:52.900Z,15.30
2023-03-22T03:04:27.414Z,13.20
2023-03-22T03:07:01.892Z,12.90
2023-03-22T03:09:32.956Z,12.43
2023-03-22T03:12:02.733Z,12.90
2023-03-22T03:14:33.559Z,14.07
2023-03-22T03:17:17.559Z,14.80
2023-03-22T03:19:58.532Z,12.40
2023-03-22T03:22:47.172Z,11.77
2023-03-22T03:25:23.468Z,11.57
2023-03-22T03:28:02.602Z,14.77
2023-03-22T03:30:35.985Z,13.30
2023-03-22T03:33:09.347Z,14.20
2023-03-22T03:35:44.235Z,11.83
2023-03-22T03:38:21.001Z,13.67
2023-03-22T03:40:58.513Z,13.87
2023-03-22T03:43:32.882Z,14.13
2023-03-22T03:46:05.432Z,14.50
2023-03-22T03:48:42.989Z,13.80
2023-03-22T03:51:11.500Z,15.10
2023-03-22T03:53:39.752Z,13.17
2023-03-22T03:56:09.047Z,13.23
2023-03-22T03:58:41.358Z,12.03
2023-03-22T04:01:09.638Z,13.90
2023-03-22T04:03:39.302Z,14.03
2023-03-22T04:06:09.039Z,17.83
2023-03-22T04:08:37.244Z,14.17
2023-03-22T04:11:11.399Z,12.33
2023-03-22T04:13:41.149Z,14.60
2023-03-22T04:16:11.259Z,15.53
2023-03-22T04:18:39.539Z,14.47
2023-03-22T04:21:12.529Z,13.53
2023-03-22T04:23:46.827Z,13.40
2023-03-22T04:26:16.678Z,12.40
2023-03-22T04:28:47.818Z,11.83
2023-03-22T04:31:18.639Z,12.33
2023-03-22T04:33:49.892Z,12.63
2023-03-22T04:36:18.792Z,11.87
2023-03-22T04:38:48.200Z,13.00
2023-03-22T04:41:20.364Z,12.63
2023-03-22T04:43:51.093Z,14.27
2023-03-22T04:49:42.220Z,13.17
2023-03-22T04:52:10.575Z,15.70
2023-03-22T04:54:43.882Z,14.17
2023-03-22T04:57:23.027Z,16.60
2023-03-22T04:59:56.369Z,13.33
2023-03-22T05:02:24.872Z,12.53
2023-03-22T05:04:57.048Z,14.83
2023-03-22T05:07:25.744Z,12.80
2023-03-22T05:09:53.934Z,14.57
2023-03-22T05:12:22.170Z,14.53
2023-03-22T05:17:50.280Z,14.83
2023-03-22T05:20:27.890Z,16.20
2023-03-22T05:22:57.050Z,20.43
2023-03-22T05:25:26.551Z,15.17
2023-03-22T05:27:57.248Z,14.43
2023-03-22T05:30:26.950Z,18.13
2023-03-22T05:32:59.797Z,14.00
2023-03-22T05:35:29.342Z,14.93
2023-03-22T05:37:57.955Z,16.27
2023-03-22T05:40:26.974Z,15.53
2023-03-22T05:42:56.024Z,16.87
2023-03-22T05:45:29.516Z,17.23
2023-03-22T05:48:00.395Z,14.90
2023-03-22T05:51:05.839Z,20.23
2023-03-22T05:53:35.202Z,14.10
2023-03-22T05:56:03.485Z,13.17
2023-03-22T05:58:38.363Z,16.43
2023-03-22T06:01:11.011Z,16.43
2023-03-22T06:03:40.898Z,15.77
2023-03-22T06:06:11.118Z,17.27
2023-03-22T06:08:39.903Z,20.50
2023-03-22T06:11:09.313Z,16.17
2023-03-22T06:13:38.213Z,18.03
2023-03-22T06:16:14.627Z,14.63
2023-03-22T06:18:44.736Z,16.37
2023-03-22T06:21:47.379Z,16.10
2023-03-22T06:24:15.819Z,19.70
2023-03-22T06:26:44.308Z,21.30
2023-03-22T06:29:12.632Z,23.07
2023-03-22T06:31:42.331Z,21.00
2023-03-22T06:34:31.409Z,19.10
2023-03-22T06:37:01.904Z,22.80
2023-03-22T06:39:41.185Z,15.97
2023-03-22T06:42:10.938Z,15.33
2023-03-22T06:47:56.742Z,15.43
2023-03-22T06:50:27.797Z,17.60
2023-03-22T06:52:56.201Z,19.00
2023-03-22T06:55:24.693Z,23.83
2023-03-22T06:57:53.010Z,27.70
2023-03-22T07:00:21.476Z,23.30
2023-03-22T07:02:53.794Z,14.23
2023-03-22T07:05:24.712Z,14.97
2023-03-22T07:07:56.707Z,14.60
2023-03-22T07:10:24.935Z,11.27
2023-03-22T07:12:53.323Z,13.50
2023-03-22T07:15:24.817Z,14.10
2023-03-22T07:17:54.602Z,14.73
2023-03-22T07:20:30.574Z,12.87
2023-03-22T07:23:01.374Z,10.53
2023-03-22T07:25:49.484Z,10.30
2023-03-22T07:28:24.420Z,12.40
2023-03-22T07:31:01.494Z,10.70
2023-03-22T07:33:30.041Z,9.87
2023-03-22T07:39:48.730Z,7.97
2023-03-22T07:42:38.988Z,9.43
2023-03-22T07:45:11.276Z,10.53
2023-03-22T07:47:41.643Z,8.73
2023-03-22T07:50:12.636Z,6.73
2023-03-22T07:52:53.096Z,7.87
2023-03-22T07:55:22.671Z,7.43
2023-03-22T07:57:51.251Z,5.20
2023-03-22T08:00:20.082Z,7.73
2023-03-22T08:02:48.626Z,4.70
2023-03-22T08:05:17.135Z,5.40
2023-03-22T08:07:47.391Z,4.23
2023-03-22T08:11:06.917Z,6.00
2023-03-22T08:13:36.187Z,10.70
2023-03-22T08:16:06.457Z,5.40
2023-03-22T08:18:38.054Z,5.77
2023-03-22T08:21:07.093Z,7.47
2023-03-22T08:23:41.847Z,7.03
2023-03-22T08:26:15.985Z,5.60
2023-03-22T08:28:46.899Z,6.17
2023-03-22T08:31:18.769Z,7.57
2023-03-22T08:33:50.466Z,7.20
2023-03-22T08:36:26.244Z,5.83
2023-03-22T08:39:01.226Z,6.23
2023-03-22T08:41:36.476Z,5.80
2023-03-22T08:44:06.519Z,6.67
2023-03-22T08:46:34.797Z,7.33
2023-03-22T08:49:04.468Z,5.87
2023-03-22T08:51:32.785Z,5.47
2023-03-22T08:54:19.006Z,8.40
2023-03-22T09:00:21.208Z,6.60
2023-03-22T09:02:50.985Z,6.23
2023-03-22T09:05:19.172Z,4.97
2023-03-22T09:07:47.459Z,5.93
2023-03-22T09:10:20.007Z,5.10
2023-03-22T09:12:56.641Z,6.73
2023-03-22T09:15:27.326Z,7.07
2023-03-22T09:18:12.143Z,4.73
2023-03-22T09:20:42.966Z,6.43
2023-03-22T09:23:12.493Z,4.57
2023-03-22T09:25:46.281Z,6.27
2023-03-22T09:28:15.111Z,4.90
2023-03-22T09:30:47.001Z,5.70
2023-03-22T09:33:15.545Z,4.23
2023-03-22T09:35:44.828Z,7.33
2023-03-22T09:39:14.210Z,5.57
2023-03-22T09:41:47.777Z,6.37
2023-03-22T09:44:19.899Z,4.17
2023-03-22T09:46:53.341Z,4.07
2023-03-22T09:49:26.255Z,5.70
2023-03-22T09:51:55.400Z,4.00
2023-03-22T09:54:33.669Z,2.40
2023-03-22T09:57:18.044Z,5.83
2023-03-22T09:59:58.688Z,3.27
2023-03-22T10:02:47.195Z,4.93
2023-03-22T10:05:51.222Z,4.43
2023-03-22T10:08:55.965Z,3.40
2023-03-22T10:11:41.660Z,3.10
2023-03-22T10:14:35.034Z,5.30
2023-03-22T10:17:44.544Z,3.77
2023-03-22T10:20:39.992Z,4.40
2023-03-22T10:27:37.592Z,33.87
2023-03-22T10:34:38.060Z,4.60
2023-03-22T10:38:06.185Z,5.43
2023-03-22T10:47:08.408Z,2.90
2023-03-22T10:49:41.200Z,2.40
2023-03-22T10:52:44.290Z,4.63
2023-03-22T10:55:20.396Z,2.30
2023-03-22T10:58:08.140Z,3.73
2023-03-22T11:00:41.139Z,4.13
2023-03-22T11:03:42.308Z,4.17
2023-03-22T11:06:17.841Z,4.87
2023-03-22T11:12:37.828Z,2.07
2023-03-22T11:15:40.882Z,2.43
2023-03-22T11:18:17.672Z,3.03
2023-03-22T11:21:00.440Z,2.87
2023-03-22T11:24:08.639Z,4.73
2023-03-22T11:26:41.625Z,3.90
2023-03-22T11:29:15.814Z,3.47
2023-03-22T11:31:57.161Z,3.53
2023-03-22T11:34:32.186Z,3.90
2023-03-22T11:37:30.286Z,4.37
2023-03-22T11:40:05.537Z,3.63
2023-03-22T11:42:37.084Z,2.77
2023-03-22T11:45:08.040Z,2.77
2023-03-22T11:47:39.633Z,1.87
2023-03-22T11:51:04.833Z,2.60
2023-03-22T11:53:44.468Z,3.10
2023-03-22T11:59:55.393Z,2.87
2023-03-22T12:02:31.394Z,2.40
2023-03-22T12:05:06.343Z,1.30
2023-03-22T12:07:40.649Z,3.10
2023-03-22T12:13:58.621Z,3.10
2023-03-22T12:16:36.581Z,3.67
2023-03-22T12:19:17.498Z,5.20
2023-03-22T12:22:00.872Z,1.77
2023-03-22T12:24:32.206Z,2.63
2023-03-22T12:27:05.703Z,2.83
2023-03-22T12:32:51.024Z,4.73
2023-03-22T12:35:24.428Z,4.13
2023-03-22T12:37:56.845Z,2.33
2023-03-22T12:41:07.512Z,1.90
2023-03-22T12:43:49.765Z,2.67
2023-03-22T12:46:21.613Z,3.67
2023-03-22T12:49:10.775Z,2.87
2023-03-22T12:51:46.734Z,4.70
2023-03-22T12:54:16.888Z,2.33
2023-03-22T12:57:13.012Z,2.53
2023-03-22T12:59:46.716Z,3.67
2023-03-22T13:02:24.734Z,2.00
2023-03-22T13:05:43.082Z,3.97
2023-03-22T13:09:08.248Z,3.47
2023-03-22T13:11:37.345Z,6.40
2023-03-22T13:14:09.115Z,1.53
2023-03-22T13:16:51.874Z,2.17
2023-03-22T13:19:45.734Z,3.40
2023-03-22T13:22:29.328Z,2.03
2023-03-22T13:25:32.173Z,2.53
2023-03-22T13:28:06.734Z,1.30
2023-03-22T13:30:48.119Z,4.40
2023-03-22T13:33:23.061Z,2.40
2023-03-22T13:36:01.794Z,3.77
2023-03-22T13:38:35.297Z,3.33
2023-03-22T13:41:06.580Z,3.50
2023-03-22T13:44:21.871Z,2.43
2023-03-22T13:46:54.107Z,2.20
2023-03-22T13:49:45.936Z,3.87
2023-03-22T13:52:29.803Z,2.13
2023-03-22T13:54:59.812Z,2.97
2023-03-22T13:57:50.948Z,4.70
2023-03-22T14:00:34.440Z,4.33
2023-03-22T14:03:13.657Z,5.10
2023-03-22T14:05:46.989Z,1.77
2023-03-22T14:08:24.601Z,2.00
2023-03-22T14:14:33.262Z,1.37
2023-03-22T14:17:15.645Z,2.10
2023-03-22T14:19:46.028Z,1.50
